createdAt,value
2023-01-22T00:01:08.754Z,98744.91
2023-01-22T00:03:36.601Z,98742.44
2023-01-22T00:06:03.130Z,98747.06
2023-01-22T00:08:30.730Z,98740.50
2023-01-22T00:10:57.558Z,98748.66
2023-01-22T00:13:25.607Z,98750.63
2023-01-22T00:15:52.563Z,98744.97
2023-01-22T00:18:19.793Z,98751.69
2023-01-22T00:20:48.375Z,98752.00
2023-01-22T00:23:14.997Z,98740.22
2023-01-22T00:25:41.568Z,98742.28
2023-01-22T00:28:08.086Z,98747.81
2023-01-22T00:30:34.637Z,98742.47
2023-01-22T00:33:03.924Z,98754.78
2023-01-22T00:35:33.319Z,98747.78
2023-01-22T00:37:59.887Z,98759.09
2023-01-22T00:40:26.544Z,98758.31
2023-01-22T00:42:53.053Z,98751.31
2023-01-22T00:45:19.619Z,98735.56
2023-01-22T00:47:46.586Z,98742.53
2023-01-22T00:50:13.022Z,98736.25
2023-01-22T00:52:39.461Z,98745.13
2023-01-22T00:55:06.444Z,98750.84
2023-01-22T00:57:37.142Z,98755.38
2023-01-22T01:00:07.512Z,98745.19
2023-01-22T01:02:59.939Z,98757.06
2023-01-22T01:05:26.849Z,98757.97
2023-01-22T01:07:53.335Z,98749.16
2023-01-22T01:10:20.240Z,98748.66
2023-01-22T01:12:46.932Z,98753.06
2023-01-22T01:15:13.479Z,98767.44
2023-01-22T01:17:40.047Z,98762.38
2023-01-22T01:20:10.268Z,98752.69
2023-01-22T01:22:36.753Z,98774.06
2023-01-22T01:25:03.323Z,98774.72
2023-01-22T01:27:31.662Z,98775.06
2023-01-22T01:29:58.885Z,98773.47
2023-01-22T01:32:25.482Z,98779.38
2023-01-22T01:34:51.972Z,98771.00
2023-01-22T01:37:18.448Z,98786.06
2023-01-22T01:39:44.925Z,98781.19
2023-01-22T01:42:11.595Z,98788.78
2023-01-22T01:44:38.055Z,98783.34
2023-01-22T01:47:11.261Z,98783.69
2023-01-22T01:49:48.832Z,98784.34
2023-01-22T01:52:16.406Z,98789.00
2023-01-22T01:54:46.967Z,98792.56
2023-01-22T01:57:19.320Z,98793.81
2023-01-22T01:59:47.747Z,98802.13
2023-01-22T02:02:14.407Z,98796.13
2023-01-22T02:04:40.857Z,98784.59
2023-01-22T02:07:11.551Z,98789.97
2023-01-22T02:09:40.850Z,98784.34
2023-01-22T02:12:08.943Z,98780.91
2023-01-22T02:14:43.390Z,98796.25
2023-01-22T02:17:18.749Z,98794.31
2023-01-22T02:19:45.499Z,98785.03
2023-01-22T02:22:19.391Z,98791.72
2023-01-22T02:24:46.024Z,98784.41
2023-01-22T02:27:12.793Z,98798.44
2023-01-22T02:29:40.223Z,98784.59
2023-01-22T02:32:07.336Z,98801.88
2023-01-22T02:34:34.453Z,98799.03
2023-01-22T02:37:01.291Z,98788.44
2023-01-22T02:39:27.818Z,98780.34
2023-01-22T02:41:54.382Z,98771.31
2023-01-22T02:44:20.831Z,98788.88
2023-01-22T02:46:47.282Z,98789.81
2023-01-22T02:49:13.914Z,98782.94
2023-01-22T02:51:43.467Z,98763.25
2023-01-22T02:54:12.878Z,98760.91
2023-01-22T02:56:40.895Z,98773.44
2023-01-22T02:59:07.390Z,98766.94
2023-01-22T03:01:33.935Z,98774.84
2023-01-22T03:04:11.210Z,98779.03
2023-01-22T03:06:41.383Z,98761.06
2023-01-22T03:09:10.378Z,98784.25
2023-01-22T03:11:38.484Z,98765.28
2023-01-22T03:14:24.065Z,98773.38
2023-01-22T03:17:11.656Z,98775.53
2023-01-22T03:19:56.793Z,98760.19
2023-01-22T03:22:23.454Z,98768.03
2023-01-22T03:24:51.256Z,98771.91
2023-01-22T03:27:19.342Z,98773.38
2023-01-22T03:29:46.129Z,98781.41
2023-01-22T03:32:15.954Z,98788.59
2023-01-22T03:34:45.309Z,98799.19
2023-01-22T03:37:16.005Z,98789.94
2023-01-22T03:39:43.367Z,98788.78
2023-01-22T03:42:09.959Z,98783.22
2023-01-22T03:44:36.464Z,98787.50
2023-01-22T03:47:03.096Z,98799.34
2023-01-22T03:49:29.595Z,98793.31
2023-01-22T03:51:56.842Z,98796.22
2023-01-22T03:54:23.353Z,98796.16
2023-01-22T03:56:49.831Z,98814.69
2023-01-22T03:59:16.331Z,98810.91
2023-01-22T04:01:44.060Z,98802.22
2023-01-22T04:04:10.498Z,98817.59
2023-01-22T04:06:37.078Z,98796.16
2023-01-22T04:09:03.888Z,98805.13
2023-01-22T04:11:30.404Z,98808.56
2023-01-22T04:13:56.947Z,98808.41
2023-01-22T04:16:23.530Z,98802.97
2023-01-22T04:18:50.183Z,98806.09
2023-01-22T04:21:16.687Z,98803.81
2023-01-22T04:23:45.219Z,98800.28
2023-01-22T04:26:12.100Z,98807.56
2023-01-22T04:28:38.605Z,98803.69
2023-01-22T04:31:05.399Z,98805.44
2023-01-22T04:33:32.210Z,98809.78
2023-01-22T04:35:58.758Z,98800.59
2023-01-22T04:38:25.479Z,98786.75
2023-01-22T04:40:51.923Z,98800.66
2023-01-22T04:43:18.466Z,98791.44
2023-01-22T04:45:47.227Z,98778.34
2023-01-22T04:48:14.052Z,98795.47
2023-01-22T04:50:40.684Z,98806.81
2023-01-22T04:53:07.161Z,98810.31
2023-01-22T04:55:33.675Z,98810.63
2023-01-22T04:58:01.215Z,98802.84
2023-01-22T05:00:29.816Z,98793.56
2023-01-22T05:02:58.250Z,98812.84
2023-01-22T05:05:25.381Z,98812.28
2023-01-22T05:07:51.903Z,98817.06
2023-01-22T05:10:19.283Z,98805.72
2023-01-22T05:12:48.939Z,98818.34
2023-01-22T05:15:28.717Z,98809.53
2023-01-22T05:17:55.394Z,98832.41
2023-01-22T05:20:21.841Z,98834.25
2023-01-22T05:22:49.428Z,98830.88
2023-01-22T05:25:16.160Z,98815.78
2023-01-22T05:27:43.276Z,98829.88
2023-01-22T05:30:11.885Z,98819.19
2023-01-22T05:32:38.503Z,98833.03
2023-01-22T05:35:06.187Z,98833.56
2023-01-22T05:37:34.129Z,98838.72
2023-01-22T05:40:00.700Z,98829.22
2023-01-22T05:42:27.342Z,98844.28
2023-01-22T05:44:53.794Z,98842.13
2023-01-22T05:47:23.299Z,98829.66
2023-01-22T05:49:52.617Z,98846.28
2023-01-22T05:52:22.275Z,98827.16
2023-01-22T05:54:52.485Z,98835.94
2023-01-22T05:57:20.973Z,98842.38
2023-01-22T05:59:47.831Z,98840.16
2023-01-22T06:02:14.448Z,98827.50
2023-01-22T06:04:40.987Z,98839.44
2023-01-22T06:07:07.437Z,98831.78
2023-01-22T06:09:33.933Z,98827.56
2023-01-22T06:12:00.371Z,98829.25
2023-01-22T06:14:26.789Z,98837.75
2023-01-22T06:16:53.245Z,98825.66
2023-01-22T06:19:20.430Z,98831.66
2023-01-22T06:21:46.860Z,98815.03
2023-01-22T06:24:13.358Z,98832.78
2023-01-22T06:26:39.803Z,98836.31
2023-01-22T06:29:07.010Z,98848.16
2023-01-22T06:31:33.638Z,98841.44
2023-01-22T06:34:02.557Z,98851.22
2023-01-22T06:36:29.091Z,98849.91
2023-01-22T06:38:55.609Z,98864.38
2023-01-22T06:41:22.724Z,98860.28
2023-01-22T06:43:52.714Z,98842.88
2023-01-22T06:46:21.140Z,98848.00
2023-01-22T06:48:50.108Z,98829.56
2023-01-22T06:51:16.774Z,98843.88
2023-01-22T06:53:43.223Z,98835.31
2023-01-22T06:56:09.721Z,98831.34
2023-01-22T06:58:36.213Z,98810.84
2023-01-22T07:01:05.108Z,98826.38
2023-01-22T07:03:31.992Z,98826.31
2023-01-22T07:06:00.439Z,98840.00
2023-01-22T07:08:28.598Z,98840.91
2023-01-22T07:10:55.089Z,98848.84
2023-01-22T07:13:24.683Z,98841.16
2023-01-22T07:15:51.542Z,98836.22
2023-01-22T07:18:20.537Z,98845.34
2023-01-22T07:20:49.809Z,98842.97
2023-01-22T07:23:16.400Z,98850.47
2023-01-22T07:25:44.696Z,98804.44
2023-01-22T07:28:14.720Z,98841.97
2023-01-22T07:30:42.825Z,98836.06
2023-01-22T07:33:11.039Z,98854.16
2023-01-22T07:35:37.575Z,98843.50
2023-01-22T07:38:03.999Z,98846.19
2023-01-22T07:40:30.489Z,98839.53
2023-01-22T07:42:56.980Z,98844.81
2023-01-22T07:45:25.154Z,98840.66
2023-01-22T07:47:56.994Z,98845.78
2023-01-22T07:50:25.281Z,98868.06
2023-01-22T07:52:51.794Z,98851.09
2023-01-22T07:55:19.801Z,98861.50
2023-01-22T07:57:46.383Z,98842.63
2023-01-22T08:00:15.937Z,98864.41
2023-01-22T08:02:42.838Z,98865.94
2023-01-22T08:05:12.435Z,98878.16
2023-01-22T08:07:39.001Z,98877.94
2023-01-22T08:10:06.060Z,98860.47
2023-01-22T08:12:32.632Z,98880.16
2023-01-22T08:14:59.079Z,98867.38
2023-01-22T08:17:25.544Z,98885.91
2023-01-22T08:19:52.000Z,98883.31
2023-01-22T08:22:21.560Z,98881.13
2023-01-22T08:24:50.460Z,98893.53
2023-01-22T08:27:20.688Z,98889.78
2023-01-22T08:29:50.421Z,98887.25
2023-01-22T08:32:22.969Z,98887.81
2023-01-22T08:34:54.381Z,98887.16
2023-01-22T08:37:21.944Z,98891.06
2023-01-22T08:39:50.566Z,98901.03
2023-01-22T08:42:17.171Z,98911.03
2023-01-22T08:44:44.739Z,98897.31
2023-01-22T08:47:11.490Z,98900.53
2023-01-22T08:49:37.962Z,98895.34
2023-01-22T08:52:04.591Z,98901.97
2023-01-22T08:54:31.078Z,98910.59
2023-01-22T08:56:57.530Z,98926.56
2023-01-22T08:59:23.978Z,98925.16
2023-01-22T09:01:53.090Z,98915.81
2023-01-22T09:04:20.889Z,98908.97
2023-01-22T09:06:47.324Z,98920.66
2023-01-22T09:09:13.836Z,98939.81
2023-01-22T09:11:40.898Z,98935.81
2023-01-22T09:14:09.687Z,98931.69
2023-01-22T09:16:37.016Z,98924.22
2023-01-22T09:19:04.333Z,98911.72
2023-01-22T09:21:30.958Z,98929.78
2023-01-22T09:23:57.387Z,98931.03
2023-01-22T09:26:23.856Z,98932.91
2023-01-22T09:28:53.026Z,98912.56
2023-01-22T09:31:22.396Z,98945.28
2023-01-22T09:33:51.280Z,98918.03
2023-01-22T09:36:20.047Z,98932.88
2023-01-22T09:38:46.520Z,98930.50
2023-01-22T09:41:22.558Z,98923.06
2023-01-22T09:43:54.731Z,98931.06
2023-01-22T09:46:43.365Z,98928.22
2023-01-22T09:49:22.636Z,98946.09
2023-01-22T09:51:55.436Z,98949.16
2023-01-22T09:54:22.963Z,98957.38
2023-01-22T09:56:55.730Z,98946.50
2023-01-22T09:59:28.946Z,98951.56
2023-01-22T10:01:58.547Z,98956.31
2023-01-22T10:04:36.739Z,98953.50
2023-01-22T10:07:06.998Z,98942.06
2023-01-22T10:09:34.559Z,98952.03
2023-01-22T10:12:11.704Z,98966.72
2023-01-22T10:14:38.388Z,98968.13
2023-01-22T10:17:29.528Z,98959.97
2023-01-22T10:20:00.572Z,98965.50
2023-01-22T10:22:27.875Z,98970.03
2023-01-22T10:24:55.043Z,98962.06
2023-01-22T10:27:33.205Z,98966.91
2023-01-22T10:30:07.754Z,98966.91
2023-01-22T10:32:34.358Z,98959.53
2023-01-22T10:35:03.494Z,98966.66
2023-01-22T10:37:30.086Z,98950.75
2023-01-22T10:39:59.485Z,98951.97
2023-01-22T10:42:28.640Z,98960.31
2023-01-22T10:44:57.679Z,98954.97
2023-01-22T10:47:27.503Z,98956.34
2023-01-22T10:50:07.421Z,98955.19
2023-01-22T10:52:42.712Z,98947.22
2023-01-22T10:55:31.101Z,98954.06
2023-01-22T10:58:20.905Z,98950.94
2023-01-22T11:01:03.919Z,98947.22
2023-01-22T11:03:37.069Z,98946.53
2023-01-22T11:06:15.365Z,98945.16
2023-01-22T11:09:08.100Z,98939.25
2023-01-22T11:11:43.116Z,98932.38
2023-01-22T11:14:21.308Z,98949.44
2023-01-22T11:16:54.246Z,98911.94
2023-01-22T11:19:36.291Z,98936.97
2023-01-22T11:22:14.985Z,98930.22
2023-01-22T11:24:52.736Z,98926.03
2023-01-22T11:27:31.403Z,98940.19
2023-01-22T11:30:09.969Z,98936.06
2023-01-22T11:33:05.700Z,98929.31
2023-01-22T11:35:54.766Z,98919.75
2023-01-22T11:38:38.205Z,98935.00
2023-01-22T11:41:35.223Z,98936.34
2023-01-22T11:44:13.418Z,98932.16
2023-01-22T11:47:08.879Z,98930.09
2023-01-22T11:50:04.638Z,98937.09
2023-01-22T11:52:55.249Z,98938.06
2023-01-22T11:55:46.364Z,98929.72
2023-01-22T11:58:55.134Z,98924.34
2023-01-22T12:01:34.529Z,98905.34
2023-01-22T12:04:37.282Z,98927.00
2023-01-22T12:07:29.923Z,98915.69
2023-01-22T12:10:22.173Z,98912.16
2023-01-22T12:13:00.305Z,98911.63
2023-01-22T12:15:35.538Z,98889.97
2023-01-22T12:18:17.223Z,98916.22
2023-01-22T12:21:02.803Z,98912.75
2023-01-22T12:23:33.876Z,98899.00
2023-01-22T12:26:08.868Z,98909.25
2023-01-22T12:28:46.088Z,98903.28
2023-01-22T12:31:12.553Z,98905.50
2023-01-22T12:33:41.852Z,98890.75
2023-01-22T12:36:16.357Z,98900.94
2023-01-22T12:39:06.561Z,98901.69
2023-01-22T12:42:05.270Z,98889.56
2023-01-22T12:44:50.316Z,98886.66
2023-01-22T12:47:31.530Z,98888.59
2023-01-22T12:49:58.027Z,98885.69
2023-01-22T12:52:46.507Z,98892.03
2023-01-22T12:55:44.309Z,98894.78
2023-01-22T12:58:26.079Z,98897.84
2023-01-22T13:01:13.888Z,98898.75
2023-01-22T13:03:41.944Z,98885.06
2023-01-22T13:06:31.673Z,98889.19
2023-01-22T13:08:58.568Z,98896.31
2023-01-22T13:11:41.775Z,98895.16
2023-01-22T13:14:16.633Z,98893.19
2023-01-22T13:17:01.280Z,98881.75
2023-01-22T13:19:40.763Z,98876.88
2023-01-22T13:22:13.901Z,98876.13
2023-01-22T13:24:58.318Z,98876.50
2023-01-22T13:27:31.114Z,98881.34
2023-01-22T13:30:14.523Z,98885.72
2023-01-22T13:32:41.516Z,98893.78
2023-01-22T13:35:13.208Z,98908.19
2023-01-22T13:37:41.850Z,98894.41
2023-01-22T13:40:22.156Z,98901.84
2023-01-22T13:42:48.945Z,98896.94
2023-01-22T13:45:22.954Z,98874.88
2023-01-22T13:48:15.569Z,98901.47
2023-01-22T13:50:47.491Z,98912.00
2023-01-22T13:53:29.036Z,98911.03
2023-01-22T13:55:56.171Z,98910.78
2023-01-22T13:58:47.096Z,98912.78
2023-01-22T14:01:36.040Z,98910.63
2023-01-22T14:04:05.979Z,98902.69
2023-01-22T14:06:49.344Z,98920.22
2023-01-22T14:09:30.471Z,98915.78
2023-01-22T14:11:57.858Z,98916.13
2023-01-22T14:14:25.069Z,98919.69
2023-01-22T14:16:53.248Z,98920.97
2023-01-22T14:19:19.719Z,98878.44
2023-01-22T14:21:46.164Z,98918.75
2023-01-22T14:24:12.629Z,98899.31
2023-01-22T14:26:39.247Z,98936.00
2023-01-22T14:29:06.795Z,98900.38
2023-01-22T14:31:33.344Z,98928.19
2023-01-22T14:33:59.917Z,98938.81
2023-01-22T14:36:26.457Z,98934.44
2023-01-22T14:38:55.314Z,98937.28
2023-01-22T14:41:21.802Z,98928.31
2023-01-22T14:43:48.310Z,98932.28
2023-01-22T14:46:14.792Z,98928.22
2023-01-22T14:48:41.297Z,98939.44
2023-01-22T14:51:11.852Z,98935.75
2023-01-22T14:53:38.611Z,98929.16
2023-01-22T14:56:05.647Z,98938.41
2023-01-22T14:58:32.184Z,98933.53
2023-01-22T15:00:58.847Z,98934.22
2023-01-22T15:03:29.355Z,98929.00
2023-01-22T15:05:56.585Z,98952.66
2023-01-22T15:08:25.438Z,98947.59
2023-01-22T15:10:51.899Z,98940.72
2023-01-22T15:13:18.371Z,98956.66
2023-01-22T15:15:45.477Z,98946.28
2023-01-22T15:18:12.012Z,98963.56
2023-01-22T15:20:39.233Z,98931.91
2023-01-22T15:23:05.746Z,98964.66
2023-01-22T15:25:32.262Z,98964.69
2023-01-22T15:27:58.895Z,98961.56
2023-01-22T15:30:26.853Z,98959.72
2023-01-22T15:32:53.399Z,98958.88
2023-01-22T15:35:19.862Z,98965.22
2023-01-22T15:37:47.581Z,98960.00
2023-01-22T15:40:14.600Z,98953.44
2023-01-22T15:42:41.095Z,98952.06
2023-01-22T15:45:08.110Z,98960.31
2023-01-22T15:47:34.545Z,98969.91
2023-01-22T15:50:01.051Z,98966.59
2023-01-22T15:52:27.529Z,98962.25
2023-01-22T15:54:56.799Z,98941.25
2023-01-22T15:57:25.630Z,98971.97
2023-01-22T15:59:52.274Z,98979.41
2023-01-22T16:02:18.924Z,98964.94
2023-01-22T16:04:45.429Z,98979.41
2023-01-22T16:07:11.955Z,98971.75
2023-01-22T16:09:38.883Z,98984.22
2023-01-22T16:12:05.712Z,98987.00
2023-01-22T16:14:33.650Z,98985.63
2023-01-22T16:17:00.730Z,98982.22
2023-01-22T16:19:27.457Z,98994.28
2023-01-22T16:22:28.537Z,98939.56
2023-01-22T16:24:57.414Z,98943.72
2023-01-22T16:27:23.867Z,98959.97
2023-01-22T16:29:50.446Z,98999.16
2023-01-22T16:32:16.931Z,98975.47
2023-01-22T16:34:43.425Z,98986.59
2023-01-22T16:37:09.941Z,98988.59
2023-01-22T16:39:36.751Z,98980.09
2023-01-22T16:42:03.496Z,99007.13
2023-01-22T16:44:31.912Z,98975.03
2023-01-22T16:47:00.765Z,98996.47
2023-01-22T16:49:32.530Z,99001.53
2023-01-22T16:52:20.867Z,98980.78
2023-01-22T16:54:49.452Z,99004.84
2023-01-22T16:57:16.296Z,99007.44
2023-01-22T16:59:42.921Z,98990.88
2023-01-22T17:02:15.402Z,99014.31
2023-01-22T17:04:42.032Z,99017.88
2023-01-22T17:07:20.534Z,99011.13
2023-01-22T17:09:54.885Z,99002.09
2023-01-22T17:12:21.388Z,99016.88
2023-01-22T17:14:52.595Z,99017.56
2023-01-22T17:17:19.033Z,99002.22
2023-01-22T17:19:45.646Z,99018.63
2023-01-22T17:22:13.224Z,99023.44
2023-01-22T17:24:41.464Z,99009.91
2023-01-22T17:27:07.993Z,99016.63
2023-01-22T17:29:36.251Z,99022.06
2023-01-22T17:32:03.638Z,99002.69
2023-01-22T17:34:33.070Z,99024.31
2023-01-22T17:37:08.416Z,99031.59
2023-01-22T17:39:34.887Z,99023.69
2023-01-22T17:42:02.395Z,98993.66
2023-01-22T17:44:32.837Z,98998.78
2023-01-22T17:47:02.692Z,99011.28
2023-01-22T17:49:34.917Z,99000.41
2023-01-22T17:52:04.519Z,98997.16
2023-01-22T17:54:31.547Z,99023.53
2023-01-22T17:56:57.988Z,99027.72
2023-01-22T17:59:27.582Z,99019.84
2023-01-22T18:01:54.133Z,99022.06
2023-01-22T18:04:25.331Z,99015.16
2023-01-22T18:06:54.193Z,99031.25
2023-01-22T18:09:21.985Z,99021.97
2023-01-22T18:11:48.419Z,99023.78
2023-01-22T18:14:28.180Z,99028.88
2023-01-22T18:16:54.736Z,99026.91
2023-01-22T18:19:23.470Z,99009.19
2023-01-22T18:21:50.499Z,99014.78
2023-01-22T18:24:18.041Z,99022.53
2023-01-22T18:26:44.575Z,99008.19
2023-01-22T18:29:11.635Z,99027.28
2023-01-22T18:31:39.000Z,99032.53
2023-01-22T18:34:07.001Z,99025.44
2023-01-22T18:36:37.075Z,99030.03
2023-01-22T18:39:10.783Z,99021.59
2023-01-22T18:41:40.006Z,99029.94
2023-01-22T18:44:07.328Z,99035.63
2023-01-22T18:46:36.877Z,99030.13
2023-01-22T18:49:07.270Z,99022.13
2023-01-22T18:51:34.670Z,99027.81
2023-01-22T18:54:05.341Z,99038.25
2023-01-22T18:56:37.595Z,99031.88
2023-01-22T18:59:04.866Z,99028.56
2023-01-22T19:01:38.095Z,99017.25
2023-01-22T19:04:08.002Z,99045.22
2023-01-22T19:06:37.863Z,98980.94
2023-01-22T19:09:12.315Z,99011.81
2023-01-22T19:11:40.886Z,99043.44
2023-01-22T19:14:09.141Z,99016.19
2023-01-22T19:16:37.728Z,99037.94
2023-01-22T19:19:11.423Z,99041.00
2023-01-22T19:21:40.477Z,99030.13
2023-01-22T19:24:08.761Z,99049.19
2023-01-22T19:26:37.055Z,99048.03
2023-01-22T19:29:06.583Z,99050.09
2023-01-22T19:31:38.734Z,99036.63
2023-01-22T19:34:07.093Z,99042.38
2023-01-22T19:36:36.251Z,99044.69
2023-01-22T19:39:07.193Z,99051.75
2023-01-22T19:41:33.741Z,99052.56
2023-01-22T19:44:03.078Z,99047.22
2023-01-22T19:46:30.060Z,99052.97
2023-01-22T19:48:56.837Z,99050.63
2023-01-22T19:51:26.743Z,99053.34
2023-01-22T19:53:54.601Z,99055.56
2023-01-22T19:56:24.241Z,99056.94
2023-01-22T19:58:54.066Z,99056.78
2023-01-22T20:01:21.406Z,99058.22
2023-01-22T20:03:48.479Z,99030.13
2023-01-22T20:06:16.394Z,99032.13
2023-01-22T20:08:43.045Z,99038.06
2023-01-22T20:11:11.428Z,99056.16
2023-01-22T20:13:38.571Z,99045.84
2023-01-22T20:16:06.792Z,99053.34
2023-01-22T20:18:36.226Z,99046.81
2023-01-22T20:21:05.746Z,99034.88
2023-01-22T20:23:35.059Z,99048.59
2023-01-22T20:26:09.315Z,99044.97
2023-01-22T20:28:37.313Z,99040.69
2023-01-22T20:31:06.656Z,99044.13
2023-01-22T20:33:36.474Z,99041.84
2023-01-22T20:36:07.916Z,99042.53
2023-01-22T20:38:35.440Z,99055.25
2023-01-22T20:41:09.233Z,99051.75
2023-01-22T20:43:40.332Z,99058.31
2023-01-22T20:46:15.964Z,99041.31
2023-01-22T20:48:43.236Z,99066.34
2023-01-22T20:51:24.540Z,99050.34
2023-01-22T20:53:53.202Z,99046.38
2023-01-22T20:56:28.393Z,99050.25
2023-01-22T20:58:57.264Z,99050.25
2023-01-22T21:01:23.762Z,99034.25
2023-01-22T21:03:50.534Z,99036.00
2023-01-22T21:06:19.235Z,99039.84
2023-01-22T21:08:49.753Z,99047.28
2023-01-22T21:11:20.243Z,99042.81
2023-01-22T21:13:47.948Z,99038.47
2023-01-22T21:16:23.059Z,99038.25
2023-01-22T21:18:49.743Z,99028.66
2023-01-22T21:21:18.754Z,99038.16
2023-01-22T21:23:47.975Z,99036.00
2023-01-22T21:26:16.242Z,99036.69
2023-01-22T21:28:42.768Z,99031.34
2023-01-22T21:31:12.524Z,99032.88
2023-01-22T21:33:39.855Z,99038.00
2023-01-22T21:36:11.420Z,99043.06
2023-01-22T21:38:38.548Z,99038.38
2023-01-22T21:41:12.530Z,99039.44
2023-01-22T21:43:59.491Z,99046.53
2023-01-22T21:46:27.585Z,99040.00
2023-01-22T21:48:58.277Z,99040.38
2023-01-22T21:51:29.675Z,99017.09
2023-01-22T21:53:57.697Z,99035.78
2023-01-22T21:56:25.500Z,99038.94
2023-01-22T21:58:52.463Z,99050.34
2023-01-22T22:01:22.015Z,99052.56
2023-01-22T22:03:49.189Z,99051.94
2023-01-22T22:06:16.169Z,99051.63
2023-01-22T22:08:45.566Z,99056.53
2023-01-22T22:11:13.994Z,99054.47
2023-01-22T22:13:41.006Z,99045.22
2023-01-22T22:16:08.820Z,99049.34
2023-01-22T22:18:39.034Z,99051.41
2023-01-22T22:21:08.655Z,99048.59
2023-01-22T22:23:37.614Z,99042.06
2023-01-22T22:26:07.555Z,99035.00
2023-01-22T22:28:35.114Z,99046.13
2023-01-22T22:31:04.029Z,99043.38
2023-01-22T22:33:30.862Z,99031.97
2023-01-22T22:35:57.330Z,99039.84
2023-01-22T22:38:24.038Z,99033.56
2023-01-22T22:41:11.188Z,99039.56
2023-01-22T22:43:50.862Z,99027.88
2023-01-22T22:46:22.128Z,99036.16
2023-01-22T22:48:49.825Z,99031.34
2023-01-22T22:51:29.782Z,99030.25
2023-01-22T22:53:58.926Z,99033.41
2023-01-22T22:56:27.470Z,99020.16
2023-01-22T22:58:54.345Z,99022.75
2023-01-22T23:01:24.341Z,99028.44
2023-01-22T23:03:51.910Z,99024.31
2023-01-22T23:06:30.145Z,99016.09
2023-01-22T23:08:58.251Z,99025.34
2023-01-22T23:11:28.181Z,99031.56
2023-01-22T23:14:01.114Z,99039.06
2023-01-22T23:16:34.042Z,99040.94
2023-01-22T23:19:04.154Z,99032.09
2023-01-22T23:21:30.676Z,99026.44
2023-01-22T23:23:57.204Z,99019.53
2023-01-22T23:26:29.593Z,99029.56
2023-01-22T23:28:58.340Z,99017.53
2023-01-22T23:31:26.343Z,99015.69
2023-01-22T23:33:54.246Z,99034.19
2023-01-22T23:36:21.099Z,99032.53
2023-01-22T23:38:47.954Z,99030.19
2023-01-22T23:41:16.689Z,99027.59
2023-01-22T23:43:43.627Z,99016.66
2023-01-22T23:46:13.301Z,99015.69
2023-01-22T23:48:42.372Z,99002.16
2023-01-22T23:51:12.609Z,99006.34
2023-01-22T23:53:44.728Z,99022.81
2023-01-22T23:56:14.028Z,99004.91
2023-01-22T23:58:44.632Z,99007.72
